Tucson International, AZ

3:24 PM MST on September 02, 2014 (GMT -0700)
Drexel Heights | Change Station
CLOSE
Current Station
Personal Weather Station
Location: Tucson, AZ
Elevation: 2480 ft
Nearby Weather Stations

Elev 2480 ft 32.15 °N, 111.02 °W | Updated 0 second ago

Clear
Clear
102.7 °F
Feels Like 99 °F
N
2.0
Wind Variable Wind from WNW
Gusts 7.0 mph

Today
High -- | Low -- °F
--% Chance of Precip.
Yesterday
High -- | Low -- °F
Precip. -- in
5:59 AM 6:46 PM
First Quarter, 55% visible
Pressure 29.71 in
Visibility 10.0 miles
Clouds Clear
Heat Index 99 °F
Dew Point 44 °F
Humidity 14%
Rainfall 0.00 in
Snow Depth Not available.
UV 3.9 out of 12
Pollen 6.90 out of 12
Air Quality Not available.
Flu Activity Not available.
METAR KTUS 022153Z 36006KT 10SM CLR 39/05 A2988 RMK AO2 SLP059 T03940050

More Conditions Fewer Conditions

Pressure 29.71 in
Visibility 10.0 miles
Clouds Clear
Heat Index 99 °F
Dew Point 44 °F
Humidity 14%
Rainfall 0.00 in
Snow Depth Not available.
UV 3.9 out of 12
Pollen 6.90 out of 12
Air Quality Not available.
Flu Activity Not available.
METAR KTUS 022153Z 36006KT 10SM CLR 39/05 A2988 RMK AO2 SLP059 T03940050

More Conditions Fewer Conditions

10-Day Weather Forecast

Almanac

Astronomy

Sep. 02, 2014 Rise Set
Actual Time 5:59 AM MST 6:46 PM MST
Civil Twilight 5:34 AM MST 7:11 PM MST
Nautical Twilight 5:05 AM MST 7:40 PM MST
Astronomical Twilight 4:35 AM MST 8:10 PM MST
Moon 1:22 PM MST No Moon Set
Length of Visible Light 13h 36m
Length of Day
12h 46m
Tomorrow will be 1m 53s shorter.
First Quarter, 55% of the Moon is Illuminated
Today
First Quarter
Sep 8
Full
Sep 15
Last Quarter
Sep 24
New
Oct 1
First Quarter

Today's Extremes

State Highs State Lows

Community

WunderPhotos

Upload Photos

1,749,788 photos uploaded!

Nearby

Snow Depth

Station Depth Elevation
Workman Creek 0 in 6900 ft
Beaver Head 28 in 7990 ft

Earthquake Activity

City Distance Mag. Time & Date
Lordsburg, New Mexico 115 miles 2.6 8:21 AM MST
2014-09-02
Minimum magnitude displayed is 2.5.

Coastal Water Temperatures

Place Temperature
No Stations Reporting

Nearby Weather Stations